Jackson, NJ

7:13 AM EST on February 01, 2015 (GMT -0500)
Lakewood(14th Street) | Change Station
CLOSE
Current Station
Personal Weather Station
Location: Lakewood Township, NJ
Elevation: 89 ft
Nearby Weather Stations
Active Advisory: Winter Weather Advisory

Elev 89 ft 40.10 °N, 74.24 °W | Updated 5 seconds ago

Overcast
Overcast
23.9 °F
Feels Like 24 °F
N
0.0
Wind Variable Wind from SW
Gusts 0.0 mph

Today
High -- | Low -- °F
--% Chance of Precip.
Yesterday
High -- | Low -- °F
Precip. -- in
7:06 AM 5:16 PM
Waxing Gibbous, 94% visible
Pressure 30.24 in
Visibility 10.0 miles
Clouds Overcast 4800 ft
Windchill 24 °F
Dew Point 8 °F
Humidity 51%
Rainfall 0.00 in
Snow Depth Not available.
UV 0 out of 12
Pollen .10 out of 12
Air Quality Not available.
Flu Activity Not available.
METAR KMJX 011155Z AUTO 00000KT 10SM OVC048 M04/M10 A3024 RMK AO1 11040 21130 52007

More Conditions Fewer Conditions

Pressure 30.24 in
Visibility 10.0 miles
Clouds Overcast 4800 ft
Windchill 24 °F
Dew Point 8 °F
Humidity 51%
Rainfall 0.00 in
Snow Depth Not available.
UV 0 out of 12
Pollen .10 out of 12
Air Quality Not available.
Flu Activity Not available.
METAR KMJX 011155Z AUTO 00000KT 10SM OVC048 M04/M10 A3024 RMK AO1 11040 21130 52007

More Conditions Fewer Conditions

10-Day Weather Forecast

Almanac

Astronomy

Feb. 01, 2015 Rise Set
Actual Time
Civil Twilight
Nautical Twilight
Astronomical Twilight
Moon
Length of Visible Light
Length of Day
Tomorrow will be .
, % of the Moon is Illuminated

Today's Extremes

State Highs State Lows

Community

WunderPhotos

Upload Photos

1,792,349 photos uploaded!

WunderBlogs® & News

Nearby

Air Quality

  Air Quality AQ Index Pollutant
Not available.

Snow Depth

Station Depth Elevation

Earthquake Activity

City Distance Mag. Time & Date
Minimum magnitude displayed is 2.5.

Coastal Water Temperatures

Place Temperature

Nearby Weather Stations